createdAt,value
2022-07-26T00:00:00.744Z,1003.50
2022-07-26T00:02:33.825Z,1003.49
2022-07-26T00:05:06.718Z,1003.46
2022-07-26T00:07:39.740Z,1003.47
2022-07-26T00:10:12.703Z,1003.46
2022-07-26T00:12:45.715Z,1003.48
2022-07-26T00:15:18.771Z,1003.48
2022-07-26T00:17:51.710Z,1003.51
2022-07-26T00:20:27.793Z,1003.53
2022-07-26T00:22:57.705Z,1003.56
2022-07-26T00:25:30.778Z,1003.59
2022-07-26T00:28:03.748Z,1003.62
2022-07-26T00:30:36.794Z,1003.66
2022-07-26T00:33:09.759Z,1003.69
2022-07-26T00:35:42.848Z,1003.73
2022-07-26T00:38:15.766Z,1003.74
2022-07-26T00:40:48.824Z,1003.77
2022-07-26T00:43:21.777Z,1003.80
2022-07-26T00:45:54.900Z,1003.83
2022-07-26T00:48:27.837Z,1003.85
2022-07-26T00:51:00.797Z,1003.88
2022-07-26T00:53:33.777Z,1003.90
2022-07-26T00:56:06.880Z,1003.90
2022-07-26T00:58:41.759Z,1003.91
2022-07-26T01:01:14.972Z,1003.92
2022-07-26T01:03:47.786Z,1003.95
2022-07-26T01:06:25.224Z,1003.96
2022-07-26T01:08:53.785Z,1003.96
2022-07-26T01:11:26.817Z,1003.98
2022-07-26T01:13:59.805Z,1004.00
2022-07-26T01:16:32.935Z,1004.01
2022-07-26T01:19:05.789Z,1004.02
2022-07-26T01:21:38.807Z,1004.04
2022-07-26T01:24:11.818Z,1004.06
2022-07-26T01:26:44.840Z,1004.07
2022-07-26T01:29:17.867Z,1004.08
2022-07-26T01:31:50.893Z,1004.08
2022-07-26T01:34:23.854Z,1004.09
2022-07-26T01:36:56.851Z,1004.09
2022-07-26T01:39:29.843Z,1004.12
2022-07-26T01:42:02.861Z,1004.14
2022-07-26T01:44:35.872Z,1004.15
2022-07-26T01:47:08.874Z,1004.16
2022-07-26T01:49:41.895Z,1004.18
2022-07-26T01:52:14.862Z,1004.20
2022-07-26T01:54:47.911Z,1004.22
2022-07-26T01:57:20.882Z,1004.24
2022-07-26T01:59:53.896Z,1004.24
2022-07-26T02:02:40.991Z,1004.26
2022-07-26T02:05:13.894Z,1004.29
2022-07-26T02:07:46.933Z,1004.31
2022-07-26T02:10:19.879Z,1004.33
2022-07-26T02:12:52.872Z,1004.35
2022-07-26T02:15:25.610Z,1004.37
2022-07-26T02:17:58.900Z,1004.39
2022-07-26T02:20:31.902Z,1004.40
2022-07-26T02:23:04.904Z,1004.42
2022-07-26T02:25:37.922Z,1004.42
2022-07-26T02:28:10.924Z,1004.42
2022-07-26T02:30:43.722Z,1004.44
2022-07-26T02:33:16.915Z,1004.45
2022-07-26T02:35:49.984Z,1004.44
2022-07-26T02:38:22.944Z,1004.45
2022-07-26T02:40:55.967Z,1004.45
2022-07-26T02:43:28.974Z,1004.44
2022-07-26T02:46:02.675Z,1004.42
2022-07-26T02:48:35.039Z,1004.44
2022-07-26T02:51:07.942Z,1004.44
2022-07-26T02:53:40.930Z,1004.45
2022-07-26T02:56:13.999Z,1004.46
2022-07-26T02:58:46.997Z,1004.46
2022-07-26T03:01:20.050Z,1004.45
2022-07-26T03:03:53.014Z,1004.44
2022-07-26T03:06:25.973Z,1004.43
2022-07-26T03:08:59.008Z,1004.42
2022-07-26T03:11:31.987Z,1004.40
2022-07-26T03:14:05.325Z,1004.41
2022-07-26T03:16:37.981Z,1004.40
2022-07-26T03:19:11.038Z,1004.38
2022-07-26T03:21:43.991Z,1004.39
2022-07-26T03:24:17.025Z,1004.41
2022-07-26T03:26:49.959Z,1004.44
2022-07-26T03:29:23.015Z,1004.45
2022-07-26T03:31:56.005Z,1004.46
2022-07-26T03:34:29.054Z,1004.49
2022-07-26T03:37:02.011Z,1004.49
2022-07-26T03:39:35.122Z,1004.49
2022-07-26T03:42:08.031Z,1004.48
2022-07-26T03:44:41.017Z,1004.48
2022-07-26T03:47:14.060Z,1004.48
2022-07-26T03:49:47.051Z,1004.46
2022-07-26T03:52:20.009Z,1004.46
2022-07-26T03:54:53.117Z,1004.47
2022-07-26T03:57:28.158Z,1004.48
2022-07-26T03:59:59.030Z,1004.48
2022-07-26T04:02:32.105Z,1004.48
2022-07-26T04:05:05.053Z,1004.49
2022-07-26T04:07:38.083Z,1004.50
2022-07-26T04:10:11.036Z,1004.53
2022-07-26T04:12:44.093Z,1004.55
2022-07-26T04:15:17.343Z,1004.57
2022-07-26T04:17:50.123Z,1004.58
2022-07-26T04:20:23.045Z,1004.58
2022-07-26T04:22:56.053Z,1004.61
2022-07-26T04:25:38.583Z,1004.62
2022-07-26T04:28:02.081Z,1004.64
2022-07-26T04:30:35.200Z,1004.66
2022-07-26T04:33:08.065Z,1004.68
2022-07-26T04:35:41.113Z,1004.70
2022-07-26T04:38:14.087Z,1004.74
2022-07-26T04:40:47.141Z,1004.77
2022-07-26T04:43:24.007Z,1004.78
2022-07-26T04:45:57.195Z,1004.82
2022-07-26T04:48:30.208Z,1004.83
2022-07-26T04:51:03.137Z,1004.84
2022-07-26T04:53:36.139Z,1004.84
2022-07-26T04:56:09.161Z,1004.85
2022-07-26T04:58:41.831Z,1004.86
2022-07-26T05:01:15.312Z,1004.87
2022-07-26T05:03:48.152Z,1004.88
2022-07-26T05:06:21.129Z,1004.88
2022-07-26T05:08:54.194Z,1004.90
2022-07-26T05:11:27.112Z,1004.90
2022-07-26T05:14:00.136Z,1004.91
2022-07-26T05:16:33.228Z,1004.94
2022-07-26T05:19:06.173Z,1004.95
2022-07-26T05:21:39.192Z,1004.97
2022-07-26T05:24:12.523Z,1005.01
2022-07-26T05:26:45.248Z,1005.03
2022-07-26T05:29:18.182Z,1005.07
2022-07-26T05:31:51.112Z,1005.10
2022-07-26T05:34:24.207Z,1005.14
2022-07-26T05:36:57.198Z,1005.16
2022-07-26T05:39:30.202Z,1005.17
2022-07-26T05:42:03.202Z,1005.20
2022-07-26T05:44:36.174Z,1005.23
2022-07-26T05:47:09.210Z,1005.24
2022-07-26T05:49:42.195Z,1005.24
2022-07-26T05:52:15.223Z,1005.26
2022-07-26T05:54:48.268Z,1005.26
2022-07-26T05:57:21.258Z,1005.30
2022-07-26T05:59:54.242Z,1005.31
2022-07-26T06:02:27.306Z,1005.33
2022-07-26T06:05:00.210Z,1005.34
2022-07-26T06:07:33.224Z,1005.33
2022-07-26T06:10:06.234Z,1005.33
2022-07-26T06:12:39.206Z,1005.32
2022-07-26T06:15:15.570Z,1005.33
2022-07-26T06:17:45.260Z,1005.32
2022-07-26T06:20:18.201Z,1005.31
2022-07-26T06:22:51.249Z,1005.30
2022-07-26T06:25:24.222Z,1005.30
2022-07-26T06:27:57.282Z,1005.30
2022-07-26T06:30:31.871Z,1005.31
2022-07-26T06:33:05.370Z,1005.31
2022-07-26T06:35:38.317Z,1005.33
2022-07-26T06:38:11.250Z,1005.36
2022-07-26T06:40:44.227Z,1005.38
2022-07-26T06:43:17.267Z,1005.39
2022-07-26T06:45:50.343Z,1005.41
2022-07-26T06:48:23.272Z,1005.41
2022-07-26T06:50:56.048Z,1005.42
2022-07-26T06:53:29.218Z,1005.44
2022-07-26T06:56:01.964Z,1005.44
2022-07-26T06:58:34.978Z,1005.44
2022-07-26T07:01:08.365Z,1005.45
2022-07-26T07:03:41.318Z,1005.44
2022-07-26T07:06:14.315Z,1005.48
2022-07-26T07:08:47.382Z,1005.49
2022-07-26T07:11:20.292Z,1005.51
2022-07-26T07:13:53.314Z,1005.51
2022-07-26T07:16:26.226Z,1005.51
2022-07-26T07:18:58.992Z,1005.50
2022-07-26T07:21:32.034Z,1005.53
2022-07-26T07:24:05.119Z,1005.54
2022-07-26T07:26:38.069Z,1005.55
2022-07-26T07:29:11.159Z,1005.56
2022-07-26T07:31:48.777Z,1005.57
2022-07-26T07:34:17.378Z,1005.57
2022-07-26T07:36:50.280Z,1005.57
2022-07-26T07:39:23.156Z,1005.57
2022-07-26T07:41:56.151Z,1005.56
2022-07-26T07:44:29.054Z,1005.55
2022-07-26T07:47:02.400Z,1005.54
2022-07-26T07:49:35.143Z,1005.53
2022-07-26T07:52:08.197Z,1005.51
2022-07-26T07:54:41.053Z,1005.50
2022-07-26T07:57:14.095Z,1005.47
2022-07-26T07:59:47.204Z,1005.46
2022-07-26T08:02:20.404Z,1005.45
2022-07-26T08:04:53.402Z,1005.45
2022-07-26T08:07:26.076Z,1005.46
2022-07-26T08:09:59.070Z,1005.46
2022-07-26T08:12:32.088Z,1005.46
2022-07-26T08:15:07.657Z,1005.48
2022-07-26T08:17:41.837Z,1005.47
2022-07-26T08:20:14.759Z,1005.46
2022-07-26T08:22:44.395Z,1005.46
2022-07-26T08:25:17.314Z,1005.45
2022-07-26T08:28:03.156Z,1005.46
2022-07-26T08:30:23.437Z,1005.48
2022-07-26T08:32:56.098Z,1005.49
2022-07-26T08:35:29.206Z,1005.50
2022-07-26T08:38:02.433Z,1005.51
2022-07-26T08:40:35.127Z,1005.52
2022-07-26T08:43:08.419Z,1005.52
2022-07-26T08:45:41.467Z,1005.51
2022-07-26T08:48:17.760Z,1005.52
2022-07-26T08:50:47.465Z,1005.52
2022-07-26T08:53:20.402Z,1005.54
2022-07-26T08:56:08.916Z,1005.54
2022-07-26T08:58:28.413Z,1005.56
2022-07-26T09:01:01.618Z,1005.57
2022-07-26T09:03:34.541Z,1005.58
2022-07-26T09:06:07.273Z,1005.59
2022-07-26T09:08:40.461Z,1005.58
2022-07-26T09:11:13.505Z,1005.57
2022-07-26T09:13:46.479Z,1005.57
2022-07-26T09:16:19.602Z,1005.58
2022-07-26T09:18:52.474Z,1005.59
2022-07-26T09:21:25.520Z,1005.61
2022-07-26T09:23:58.664Z,1005.65
2022-07-26T09:26:31.503Z,1005.66
2022-07-26T09:29:04.578Z,1005.67
2022-07-26T09:31:37.536Z,1005.66
2022-07-26T09:34:10.855Z,1005.64
2022-07-26T09:36:43.512Z,1005.64
2022-07-26T09:39:16.563Z,1005.63
2022-07-26T09:42:10.791Z,1005.63
2022-07-26T09:44:22.549Z,1005.62
2022-07-26T09:46:55.528Z,1005.63
2022-07-26T09:49:40.381Z,1005.63
2022-07-26T09:52:01.587Z,1005.64
2022-07-26T09:54:34.576Z,1005.63
2022-07-26T09:57:07.541Z,1005.63
2022-07-26T09:59:40.600Z,1005.63
2022-07-26T10:02:13.559Z,1005.62
2022-07-26T10:04:46.615Z,1005.62
2022-07-26T10:07:19.538Z,1005.63
2022-07-26T10:09:52.613Z,1005.65
2022-07-26T10:12:30.172Z,1005.67
2022-07-26T10:14:58.537Z,1005.68
2022-07-26T10:17:32.335Z,1005.67
2022-07-26T10:20:04.635Z,1005.68
2022-07-26T10:22:37.426Z,1005.69
2022-07-26T10:25:10.255Z,1005.68
2022-07-26T10:27:43.572Z,1005.68
2022-07-26T10:30:16.607Z,1005.68
2022-07-26T10:32:49.656Z,1005.69
2022-07-26T10:35:22.588Z,1005.72
2022-07-26T10:37:55.607Z,1005.74
2022-07-26T10:40:28.693Z,1005.74
2022-07-26T10:43:17.112Z,1005.74
2022-07-26T10:45:34.662Z,1005.73
2022-07-26T10:48:07.310Z,1005.72
2022-07-26T10:50:40.439Z,1005.70
2022-07-26T10:53:13.621Z,1005.70
2022-07-26T10:55:46.635Z,1005.71
2022-07-26T10:58:19.398Z,1005.71
2022-07-26T11:00:52.680Z,1005.69
2022-07-26T11:03:25.317Z,1005.69
2022-07-26T11:05:58.310Z,1005.68
2022-07-26T11:08:31.619Z,1005.67
2022-07-26T11:11:04.658Z,1005.66
2022-07-26T11:13:37.461Z,1005.64
2022-07-26T11:16:10.467Z,1005.62
2022-07-26T11:18:43.446Z,1005.60
2022-07-26T11:21:16.362Z,1005.58
2022-07-26T11:23:49.513Z,1005.58
2022-07-26T11:26:22.643Z,1005.54
2022-07-26T11:28:55.710Z,1005.54
2022-07-26T11:31:50.954Z,1005.54
2022-07-26T11:34:01.705Z,1005.52
2022-07-26T11:36:34.710Z,1005.51
2022-07-26T11:39:07.674Z,1005.51
2022-07-26T11:41:40.688Z,1005.49
2022-07-26T11:44:14.072Z,1005.47
2022-07-26T11:46:46.632Z,1005.45
2022-07-26T11:49:19.543Z,1005.43
2022-07-26T11:51:52.537Z,1005.41
2022-07-26T11:54:25.395Z,1005.42
2022-07-26T11:56:58.672Z,1005.41
2022-07-26T11:59:31.722Z,1005.40
2022-07-26T12:02:04.721Z,1005.38
2022-07-26T12:04:37.893Z,1005.37
2022-07-26T12:07:10.779Z,1005.37
2022-07-26T12:09:43.746Z,1005.40
2022-07-26T12:12:16.813Z,1005.41
2022-07-26T12:14:49.555Z,1005.42
2022-07-26T12:17:22.459Z,1005.43
2022-07-26T12:19:55.539Z,1005.43
2022-07-26T12:22:28.534Z,1005.45
2022-07-26T12:25:01.454Z,1005.44
2022-07-26T12:27:34.544Z,1005.43
2022-07-26T12:30:07.426Z,1005.38
2022-07-26T12:32:40.761Z,1005.36
2022-07-26T12:35:13.451Z,1005.34
2022-07-26T12:37:46.450Z,1005.35
2022-07-26T12:40:19.802Z,1005.32
2022-07-26T12:42:57.233Z,1005.30
2022-07-26T12:45:25.856Z,1005.27
2022-07-26T12:47:58.790Z,1005.24
2022-07-26T12:50:31.787Z,1005.23
2022-07-26T12:53:04.468Z,1005.20
2022-07-26T12:55:37.619Z,1005.19
2022-07-26T12:58:10.556Z,1005.19
2022-07-26T13:00:43.479Z,1005.19
2022-07-26T13:03:16.597Z,1005.18
2022-07-26T13:05:49.522Z,1005.15
2022-07-26T13:08:22.579Z,1005.15
2022-07-26T13:10:59.983Z,1005.13
2022-07-26T13:13:28.531Z,1005.12
2022-07-26T13:16:01.537Z,1005.09
2022-07-26T13:18:34.527Z,1005.06
2022-07-26T13:21:07.529Z,1005.04
2022-07-26T13:23:40.641Z,1005.02
2022-07-26T13:26:14.050Z,1005.01
2022-07-26T13:28:49.721Z,1005.01
2022-07-26T13:31:19.664Z,1005.00
2022-07-26T13:33:52.696Z,1005.00
2022-07-26T13:36:25.541Z,1004.98
2022-07-26T13:38:58.871Z,1004.98
2022-07-26T13:41:31.867Z,1004.97
2022-07-26T13:44:04.859Z,1004.96
2022-07-26T13:46:38.041Z,1004.96
2022-07-26T13:49:10.882Z,1004.95
2022-07-26T13:51:43.666Z,1004.94
2022-07-26T13:54:16.937Z,1004.93
2022-07-26T13:56:49.915Z,1004.94
2022-07-26T13:59:22.686Z,1004.93
2022-07-26T14:01:56.037Z,1004.92
2022-07-26T14:04:29.217Z,1004.90
2022-07-26T14:07:01.602Z,1004.87
2022-07-26T14:09:34.714Z,1004.86
2022-07-26T14:12:07.778Z,1004.86
2022-07-26T14:14:40.895Z,1004.84
2022-07-26T14:17:13.581Z,1004.84
2022-07-26T14:19:46.903Z,1004.82
2022-07-26T14:22:19.923Z,1004.82
2022-07-26T14:24:52.910Z,1004.81
2022-07-26T14:27:25.895Z,1004.80
2022-07-26T14:29:58.927Z,1004.80
2022-07-26T14:32:31.605Z,1004.78
2022-07-26T14:35:04.922Z,1004.77
2022-07-26T14:37:42.421Z,1004.76
2022-07-26T14:40:10.941Z,1004.74
2022-07-26T14:42:43.643Z,1004.73
2022-07-26T14:45:16.952Z,1004.71
2022-07-26T14:47:49.970Z,1004.72
2022-07-26T14:50:22.995Z,1004.71
2022-07-26T14:52:55.961Z,1004.70
2022-07-26T14:55:28.960Z,1004.69
2022-07-26T14:58:01.651Z,1004.66
2022-07-26T15:00:34.951Z,1004.64
2022-07-26T15:03:07.989Z,1004.62
2022-07-26T15:05:41.012Z,1004.62
2022-07-26T15:08:13.903Z,1004.62
2022-07-26T15:10:46.948Z,1004.62
2022-07-26T15:13:19.899Z,1004.62
2022-07-26T15:15:52.944Z,1004.60
2022-07-26T15:18:25.680Z,1004.57
2022-07-26T15:20:58.980Z,1004.57
2022-07-26T15:23:31.695Z,1004.55
2022-07-26T15:26:04.976Z,1004.53
2022-07-26T15:28:37.688Z,1004.51
2022-07-26T15:31:10.696Z,1004.50
2022-07-26T15:33:43.964Z,1004.47
2022-07-26T15:36:17.003Z,1004.46
2022-07-26T15:38:49.707Z,1004.43
2022-07-26T15:41:22.709Z,1004.43
2022-07-26T15:43:56.080Z,1004.42
2022-07-26T15:46:29.115Z,1004.42
2022-07-26T15:49:02.116Z,1004.39
2022-07-26T15:51:34.735Z,1004.38
2022-07-26T15:54:08.418Z,1004.39
2022-07-26T15:56:41.093Z,1004.38
2022-07-26T15:59:14.074Z,1004.36
2022-07-26T16:01:46.857Z,1004.35
2022-07-26T16:04:20.053Z,1004.34
2022-07-26T16:06:52.884Z,1004.33
2022-07-26T16:09:26.082Z,1004.35
2022-07-26T16:12:04.017Z,1004.37
2022-07-26T16:14:32.064Z,1004.38
2022-07-26T16:17:04.760Z,1004.37
2022-07-26T16:19:37.759Z,1004.38
2022-07-26T16:22:10.886Z,1004.36
2022-07-26T16:24:43.768Z,1004.35
2022-07-26T16:27:16.845Z,1004.34
2022-07-26T16:29:52.300Z,1004.33
2022-07-26T16:32:22.815Z,1004.32
2022-07-26T16:34:56.081Z,1004.30
2022-07-26T16:37:29.160Z,1004.29
2022-07-26T16:40:01.805Z,1004.28
2022-07-26T16:42:35.100Z,1004.25
2022-07-26T16:45:07.917Z,1004.25
2022-07-26T16:47:41.150Z,1004.24
2022-07-26T16:50:14.465Z,1004.22
2022-07-26T16:52:47.811Z,1004.20
2022-07-26T16:55:20.943Z,1004.19
2022-07-26T16:57:53.878Z,1004.18
2022-07-26T17:00:26.925Z,1004.16
2022-07-26T17:02:59.840Z,1004.13
2022-07-26T17:05:32.982Z,1004.12
2022-07-26T17:08:05.868Z,1004.10
2022-07-26T17:10:38.938Z,1004.10
2022-07-26T17:13:11.889Z,1004.11
2022-07-26T17:15:45.264Z,1004.13
2022-07-26T17:18:17.871Z,1004.14
2022-07-26T17:20:50.986Z,1004.13
2022-07-26T17:23:24.122Z,1004.14
2022-07-26T17:25:58.194Z,1004.15
2022-07-26T17:28:31.012Z,1004.16
2022-07-26T17:31:04.177Z,1004.18
2022-07-26T17:33:37.174Z,1004.17
2022-07-26T17:36:10.187Z,1004.17
2022-07-26T17:38:43.227Z,1004.17
2022-07-26T17:41:18.518Z,1004.18
2022-07-26T17:43:49.919Z,1004.17
2022-07-26T17:46:22.983Z,1004.17
2022-07-26T17:48:56.144Z,1004.18
2022-07-26T17:51:28.923Z,1004.19
2022-07-26T17:54:02.026Z,1004.19
2022-07-26T17:56:35.007Z,1004.20
2022-07-26T17:59:08.759Z,1004.21
2022-07-26T18:01:52.556Z,1004.21
2022-07-26T18:04:14.262Z,1004.21
2022-07-26T18:06:47.234Z,1004.21
2022-07-26T18:09:20.303Z,1004.21
2022-07-26T18:11:52.947Z,1004.20
2022-07-26T18:14:26.243Z,1004.21
2022-07-26T18:16:59.097Z,1004.23
2022-07-26T18:19:31.947Z,1004.23
2022-07-26T18:22:06.235Z,1004.23
2022-07-26T18:24:38.289Z,1004.24
2022-07-26T18:27:11.296Z,1004.26
2022-07-26T18:29:44.274Z,1004.25
2022-07-26T18:32:17.083Z,1004.24
2022-07-26T18:34:52.285Z,1004.24
2022-07-26T18:37:23.273Z,1004.25
2022-07-26T18:39:58.116Z,1004.26
2022-07-26T18:42:29.020Z,1004.30
2022-07-26T18:45:01.963Z,1004.29
2022-07-26T18:47:35.305Z,1004.30
2022-07-26T18:50:08.345Z,1004.31
2022-07-26T18:52:41.022Z,1004.33
2022-07-26T18:55:14.301Z,1004.33
2022-07-26T18:57:47.251Z,1004.34
2022-07-26T19:00:20.247Z,1004.36
2022-07-26T19:02:53.029Z,1004.38
2022-07-26T19:05:26.347Z,1004.41
2022-07-26T19:07:58.994Z,1004.44
2022-07-26T19:10:32.139Z,1004.47
2022-07-26T19:13:05.123Z,1004.50
2022-07-26T19:15:38.380Z,1004.53
2022-07-26T19:18:11.231Z,1004.57
2022-07-26T19:20:44.041Z,1004.60
2022-07-26T19:23:17.390Z,1004.63
2022-07-26T19:25:50.339Z,1004.65
2022-07-26T19:28:23.451Z,1004.69
2022-07-26T19:30:56.409Z,1004.75
2022-07-26T19:33:29.329Z,1004.77
2022-07-26T19:36:02.363Z,1004.82
2022-07-26T19:38:35.060Z,1004.87
2022-07-26T19:41:11.567Z,1004.91
2022-07-26T19:43:41.405Z,1004.94
2022-07-26T19:46:14.174Z,1004.97
2022-07-26T19:48:47.443Z,1005.02
2022-07-26T19:51:20.426Z,1005.05
2022-07-26T19:53:53.349Z,1005.10
2022-07-26T19:56:26.199Z,1005.13
2022-07-26T19:58:59.079Z,1005.14
2022-07-26T20:01:32.214Z,1005.16
2022-07-26T20:04:05.110Z,1005.18
2022-07-26T20:06:38.226Z,1005.20
2022-07-26T20:09:11.507Z,1005.22
2022-07-26T20:11:44.174Z,1005.24
2022-07-26T20:14:17.213Z,1005.27
2022-07-26T20:16:55.649Z,1005.30
2022-07-26T20:19:23.142Z,1005.32
2022-07-26T20:21:56.211Z,1005.34
2022-07-26T20:24:29.172Z,1005.37
2022-07-26T20:27:02.108Z,1005.38
2022-07-26T20:29:35.359Z,1005.39
2022-07-26T20:32:08.146Z,1005.41
2022-07-26T20:34:41.260Z,1005.43
2022-07-26T20:37:14.118Z,1005.45
2022-07-26T20:39:47.307Z,1005.47
2022-07-26T20:42:21.633Z,1005.48
2022-07-26T20:44:53.163Z,1005.50
2022-07-26T20:47:26.139Z,1005.52
2022-07-26T20:50:03.145Z,1005.54
2022-07-26T20:52:32.140Z,1005.57
2022-07-26T20:55:05.152Z,1005.58
2022-07-26T20:57:38.288Z,1005.58
2022-07-26T21:00:11.330Z,1005.60
2022-07-26T21:02:44.339Z,1005.60
2022-07-26T21:05:17.540Z,1005.63
2022-07-26T21:07:53.901Z,1005.65
2022-07-26T21:10:23.550Z,1005.67
2022-07-26T21:12:56.173Z,1005.67
2022-07-26T21:15:29.247Z,1005.69
2022-07-26T21:18:02.316Z,1005.70
2022-07-26T21:20:35.265Z,1005.72
2022-07-26T21:23:17.255Z,1005.74
2022-07-26T21:25:41.534Z,1005.76
2022-07-26T21:28:14.549Z,1005.77
2022-07-26T21:30:47.571Z,1005.79
2022-07-26T21:33:20.572Z,1005.80
2022-07-26T21:35:53.556Z,1005.81
2022-07-26T21:38:26.478Z,1005.82
2022-07-26T21:40:59.481Z,1005.82
2022-07-26T21:43:32.486Z,1005.83
2022-07-26T21:46:10.348Z,1005.84
2022-07-26T21:48:38.608Z,1005.85
2022-07-26T21:51:11.583Z,1005.86
2022-07-26T21:53:44.585Z,1005.87
2022-07-26T21:56:17.583Z,1005.88
2022-07-26T21:58:50.573Z,1005.89
2022-07-26T22:01:23.645Z,1005.89
2022-07-26T22:03:56.603Z,1005.88
2022-07-26T22:06:29.576Z,1005.90
2022-07-26T22:09:02.539Z,1005.92
2022-07-26T22:11:35.642Z,1005.94
2022-07-26T22:14:08.653Z,1005.96
2022-07-26T22:16:41.769Z,1005.97
2022-07-26T22:19:14.644Z,1005.97
2022-07-26T22:21:47.560Z,1005.99
2022-07-26T22:24:20.614Z,1005.99
2022-07-26T22:26:53.612Z,1005.99
2022-07-26T22:29:26.651Z,1005.98
2022-07-26T22:31:59.678Z,1005.98
2022-07-26T22:34:32.634Z,1005.98
2022-07-26T22:37:05.588Z,1005.98
2022-07-26T22:39:38.649Z,1005.97
2022-07-26T22:42:15.962Z,1005.97
2022-07-26T22:44:44.665Z,1005.96
2022-07-26T22:47:17.661Z,1005.97
2022-07-26T22:49:50.665Z,1005.98
2022-07-26T22:52:23.664Z,1005.96
2022-07-26T22:54:56.674Z,1005.96
2022-07-26T22:57:29.670Z,1005.97
2022-07-26T23:00:02.615Z,1005.96
2022-07-26T23:02:35.704Z,1005.95
2022-07-26T23:05:08.759Z,1005.94
2022-07-26T23:07:41.707Z,1005.92
2022-07-26T23:10:14.683Z,1005.92
2022-07-26T23:12:47.681Z,1005.91
2022-07-26T23:15:20.666Z,1005.92
2022-07-26T23:17:53.741Z,1005.93
2022-07-26T23:20:26.666Z,1005.93
2022-07-26T23:22:59.622Z,1005.94
2022-07-26T23:25:32.687Z,1005.94
2022-07-26T23:28:05.715Z,1005.95
2022-07-26T23:30:38.523Z,1005.95
2022-07-26T23:33:11.734Z,1005.96
2022-07-26T23:35:44.817Z,1005.95
2022-07-26T23:38:17.700Z,1005.95
2022-07-26T23:40:50.745Z,1005.96
2022-07-26T23:43:23.729Z,1005.96
2022-07-26T23:45:56.756Z,1005.96
2022-07-26T23:48:29.769Z,1005.95
2022-07-26T23:51:02.776Z,1005.93
2022-07-26T23:53:35.772Z,1005.93
2022-07-26T23:56:08.714Z,1005.93
2022-07-26T23:58:41.752Z,1005.93
